Flight Briefing for CMB820

Departure Arrival
Joint Base McGuire Dix Lakehurst (KWRI)
Click to view FAA NOTAMS
Patrick Air Force Base (KCOF)
Click to view FAA NOTAMS
Departure Time Arrival Time
N/A N/A
Aircraft Distance
B757-200SF 768nm
Departure METAR Arrival METAR
KWRI 260956Z AUTO 35010KT 10SM CLR 00/M13 A3014 RMK AO2 SLP207 T00011126 $ KCOF 260956Z AUTO 30009KT 10SM BKN085 19/19 A2999 RMK AO2 SLP160 T01930193 $
Suggested Route
CYN226011 ACY V229 LEEAH V1 ISO J121 MILIE J103 OMN BITHO7


View recent IFR Routes data
Notes
USTRANSCOM CONTRACT FLIGHT

Charts and Procedures

Charts for KWRI
No chart available
Charts for KCOF
No chart available

Windy.com Weather Map